Orlando, Florida
Traffic Map
Current Weather Conditions
Orlando, Florida
Overcast Light Rain
Overcast
80°
Feels Like: 85°
Wind Chill: 80° Ceiling: 10000
Heat Index: 85° Visibility: 7mi
Dew Point: 75° Wind: 7mph
Humidity: 85% Direction: 60° (ENE)
Pressure: 29.88in Gusts: 0mph
Raw Report DataKORL 232153Z AUTO 06006KT 7SM -RA FEW050 BKN100 OVC120 27/24 A2988 RMK AO2 RAB16 SLP121 P0001 T02670239
Traffic Incident Summary
Active as of:
Severity:
Category:
InformationThere was an issue retrieving the traffic information for this location. Please try a different location or try again shortly.
Advertisements